Observation data for Silverton on 03/10/2018      Previous  Date  Next       Current Mesonet Observations  Soil Data  Daily Summary Page  Observations in Plain Language
KSVS 100600Z 12005KT 08/M05 A2984 RMK A01 T00761052  RH  040%=      5-min Rain = 0
KSVS 100605Z 14005KT 09/M05 A2985 RMK A01 T00851052  RH  037%=      5-min Rain = 0
KSVS 100610Z 13005KT 09/M05 A2985 RMK A01 T00921054  RH  035%=      5-min Rain = 0
KSVS 100615Z 12005KT 09/M06 A2984 RMK A01 T00851055  RH  037%=      5-min Rain = 0
KSVS 100620Z 11005KT 09/M05 A2984 RMK A01 T00911054  RH  035%=      5-min Rain = 0
KSVS 100625Z 09006KT 10/M06 A2984 RMK A01 T00951055  RH  034%=      5-min Rain = 0
KSVS 100630Z 09006KT 10/M06 A2984 RMK A01 T00951055  RH  034%=      5-min Rain = 0
KSVS 100635Z 09007KT 10/M06 A2983 RMK A01 T01001059  RH  032%=      5-min Rain = 0
KSVS 100640Z 09008KT 08/M06 A2983 RMK A01 T00841064  RH  034%=      5-min Rain = 0
KSVS 100645Z 08008KT 07/M06 A2983 RMK A01 T00741063  RH  037%=      5-min Rain = 0
KSVS 100650Z 09009KT 08/M06 A2983 RMK A01 T00751064  RH  037%=      5-min Rain = 0
KSVS 100655Z 09008KT 08/M07 A2983 RMK A01 T00781065  RH  036%=      5-min Rain = 0
KSVS 100700Z 10007KT 08/M07 A2983 RMK A01 T00821068  RH  034%=      5-min Rain = 0
KSVS 100705Z 10007KT 09/M07 A2982 RMK A01 T00881070  RH  032%=      5-min Rain = 0
KSVS 100710Z 10008KT 09/M08 A2982 RMK A01 T00861075  RH  031%=      5-min Rain = 0
KSVS 100715Z 10008KT 08/M07 A2983 RMK A01 T00751074  RH  034%=      5-min Rain = 0
KSVS 100720Z 10008KT 07/M08 A2983 RMK A01 T00731077  RH  034%=      5-min Rain = 0
KSVS 100725Z 10008KT 07/M08 A2983 RMK A01 T00721079  RH  033%=      5-min Rain = 0
KSVS 100730Z 10007KT 07/M08 A2983 RMK A01 T00681079  RH  034%=      5-min Rain = 0
KSVS 100735Z 10006KT 07/M08 A2982 RMK A01 T00731077  RH  033%=      5-min Rain = 0
KSVS 100740Z 10007KT 08/M08 A2982 RMK A01 T00751077  RH  033%=      5-min Rain = 0
KSVS 100745Z 11006KT 08/M08 A2982 RMK A01 T00751077  RH  033%=      5-min Rain = 0
KSVS 100750Z 11005KT 07/M07 A2982 RMK A01 T00711074  RH  035%=      5-min Rain = 0
KSVS 100755Z 12005KT 07/M07 A2982 RMK A01 T00741073  RH  034%=      5-min Rain = 0
KSVS 100800Z 11005KT 08/M08 A2981 RMK A01 T00801075  RH  033%=      5-min Rain = 0
KSVS 100805Z 11004KT 08/M08 A2981 RMK A01 T00771076  RH  033%=      5-min Rain = 0
KSVS 100810Z 10004KT 07/M08 A2981 RMK A01 T00711075  RH  035%=      5-min Rain = 0
KSVS 100815Z 11005KT 07/M08 A2981 RMK A01 T00661075  RH  036%=      5-min Rain = 0
KSVS 100820Z 10005KT 06/M08 A2981 RMK A01 T00641076  RH  036%=      5-min Rain = 0
KSVS 100825Z 11005KT 07/M08 A2981 RMK A01 T00731078  RH  033%=      5-min Rain = 0
KSVS 100830Z 11004KT 08/M08 A2981 RMK A01 T00771080  RH  032%=      5-min Rain = 0
KSVS 100835Z 12003KT 06/M08 A2981 RMK A01 T00561078  RH  038%=      5-min Rain = 0
KSVS 100840Z 12004KT 04/M08 A298 RMK A01 T00411075  RH  042%=      5-min Rain = 0
KSVS 100845Z 12006KT 05/M08 A298 RMK A01 T00511077  RH  039%=      5-min Rain = 0
KSVS 100850Z 11007KT 07/M08 A298 RMK A01 T00721080  RH  033%=      5-min Rain = 0
KSVS 100855Z 11007KT 08/M08 A298 RMK A01 T00801084  RH  030%=      5-min Rain = 0
KSVS 100900Z 11007KT 08/M09 A2979 RMK A01 T00801085  RH  030%=      5-min Rain = 0
KSVS 100905Z 10008KT 08/M08 A2979 RMK A01 T00781084  RH  031%=      5-min Rain = 0
KSVS 100910Z 10007KT 08/M08 A2978 RMK A01 T00801083  RH  030%=      5-min Rain = 0
KSVS 100915Z 11008KT 08/M09 A2978 RMK A01 T00781086  RH  030%=      5-min Rain = 0
KSVS 100920Z 11007KT 07/M09 A2978 RMK A01 T00741085  RH  031%=      5-min Rain = 0
KSVS 100925Z 14005KT 08/M08 A2978 RMK A01 T00771081  RH  032%=      5-min Rain = 0
KSVS 100930Z 12007KT 08/M08 A2978 RMK A01 T00771078  RH  032%=      5-min Rain = 0
KSVS 100935Z 12007KT 08/M08 A2978 RMK A01 T00811080  RH  031%=      5-min Rain = 0
KSVS 100940Z 13006KT 08/M08 A2978 RMK A01 T00781080  RH  032%=      5-min Rain = 0
KSVS 100945Z 14005KT 07/M08 A2978 RMK A01 T00721079  RH  033%=      5-min Rain = 0
KSVS 100950Z 15004KT 07/M08 A2978 RMK A01 T00711079  RH  033%=      5-min Rain = 0
KSVS 100955Z 15004KT 06/M08 A2978 RMK A01 T00611081  RH  035%=      5-min Rain = 0
KSVS 101000Z 16004KT 06/M08 A2978 RMK A01 T00561080  RH  037%=      5-min Rain = 0
KSVS 101005Z 17005KT 05/M08 A2978 RMK A01 T00491077  RH  039%=      5-min Rain = 0
KSVS 101010Z 15004KT 06/M08 A2978 RMK A01 T00601076  RH  037%=      5-min Rain = 0
KSVS 101015Z 15004KT 07/M07 A2978 RMK A01 T00731074  RH  034%=      5-min Rain = 0
KSVS 101020Z 16003KT 05/M08 A2978 RMK A01 T00541078  RH  038%=      5-min Rain = 0
KSVS 101025Z 16003KT 06/M08 A2979 RMK A01 T00551075  RH  039%=      5-min Rain = 0
KSVS 101030Z 17003KT 04/M08 A2979 RMK A01 T00351076  RH  044%=      5-min Rain = 0
KSVS 101035Z 16002KT 03/M08 A2979 RMK A01 T00311078  RH  045%=      5-min Rain = 0
KSVS 101040Z 20001KT 03/M08 A2979 RMK A01 T00251076  RH  047%=      5-min Rain = 0
KSVS 101045Z 24001KT 03/M08 A2979 RMK A01 T00281078  RH  046%=      5-min Rain = 0
KSVS 101050Z 21002KT 03/M07 A2979 RMK A01 T00341074  RH  045%=      5-min Rain = 0
KSVS 101055Z 24003KT 04/M07 A298 RMK A01 T00351074  RH  045%=      5-min Rain = 0
KSVS 101100Z 28007KT 02/M07 A298 RMK A01 T00161073  RH  052%=      5-min Rain = 0
KSVS 101105Z 28006KT 01/M08 A298 RMK A01 T00121076  RH  052%=      5-min Rain = 0
KSVS 101110Z 29008KT 01/M08 A2981 RMK A01 T00091078  RH  052%=      5-min Rain = 0
KSVS 101115Z 29007KT 01/M07 A2981 RMK A01 T00131074  RH  052%=      5-min Rain = 0
KSVS 101120Z 29006KT 02/M07 A2981 RMK A01 T00171068  RH  053%=      5-min Rain = 0
KSVS 101125Z 28008KT 02/M07 A2981 RMK A01 T00181066  RH  053%=      5-min Rain = 0
KSVS 101130Z 28009KT 02/M07 A2981 RMK A01 T00181069  RH  052%=      5-min Rain = 0
KSVS 101135Z 27010KT 02/M07 A2982 RMK A01 T00241071  RH  050%=      5-min Rain = 0
KSVS 101140Z 26010KT 03/M07 A2981 RMK A01 T00331069  RH  047%=      5-min Rain = 0
KSVS 101145Z 26011KT 04/M07 A2981 RMK A01 T00411071  RH  044%=      5-min Rain = 0
KSVS 101150Z 26010KT 04/M07 A2982 RMK A01 T00421072  RH  043%=      5-min Rain = 0
KSVS 101155Z 27009KT 04/M08 A2982 RMK A01 T00421075  RH  042%=      5-min Rain = 0
KSVS 101200Z 27008KT 04/M08 A2982 RMK A01 T00411077  RH  042%=      5-min Rain = 0
KSVS 101205Z 27008KT 04/M08 A2981 RMK A01 T00361078  RH  043%=      5-min Rain = 0
KSVS 101210Z 26009KT 04/M08 A2981 RMK A01 T00351079  RH  043%=      5-min Rain = 0
KSVS 101215Z 26009KT 04/M08 A2981 RMK A01 T00351080  RH  043%=      5-min Rain = 0
KSVS 101220Z 26009KT 04/M08 A298 RMK A01 T00351081  RH  042%=      5-min Rain = 0
KSVS 101225Z 26009KT 04/M08 A298 RMK A01 T00371081  RH  042%=      5-min Rain = 0
KSVS 101230Z 25009KT 04/M08 A298 RMK A01 T00361082  RH  042%=      5-min Rain = 0
KSVS 101235Z 25009KT 03/M08 A298 RMK A01 T00321083  RH  043%=      5-min Rain = 0
KSVS 101240Z 25009KT 03/M09 A298 RMK A01 T00281086  RH  043%=      5-min Rain = 0
KSVS 101245Z 26008KT 02/M09 A298 RMK A01 T00241087  RH  044%=      5-min Rain = 0
KSVS 101250Z 27009KT 02/M09 A2981 RMK A01 T00231086  RH  044%=      5-min Rain = 0
KSVS 101255Z 27009KT 02/M09 A2981 RMK A01 T00221085  RH  045%=      5-min Rain = 0
KSVS 101300Z 28009KT 02/M08 A2982 RMK A01 T00221083  RH  046%=      5-min Rain = 0
KSVS 101305Z 29010KT 02/M08 A2982 RMK A01 T00201082  RH  047%=      5-min Rain = 0
KSVS 101310Z 30010KT 02/M08 A2983 RMK A01 T00181083  RH  047%=      5-min Rain = 0
KSVS 101315Z 30009KT 03/M08 A2982 RMK A01 T00251079  RH  046%=      5-min Rain = 0
KSVS 101320Z 30008KT 02/M08 A2982 RMK A01 T00241078  RH  047%=      5-min Rain = 0
KSVS 101325Z 30008KT 02/M08 A2982 RMK A01 T00201078  RH  048%=      5-min Rain = 0
KSVS 101330Z 31008KT 02/M08 A2982 RMK A01 T00201077  RH  048%=      5-min Rain = 0
KSVS 101335Z 30007KT 03/M08 A2982 RMK A01 T00251075  RH  048%=      5-min Rain = 0
KSVS 101340Z 29007KT 03/M07 A2982 RMK A01 T00301074  RH  046%=      5-min Rain = 0
KSVS 101345Z 29008KT 03/M07 A2982 RMK A01 T00321074  RH  046%=      5-min Rain = 0
KSVS 101350Z 28008KT 04/M07 A2983 RMK A01 T00351072  RH  045%=      5-min Rain = 0
KSVS 101355Z 28009KT 04/M07 A2983 RMK A01 T00381073  RH  044%=      5-min Rain = 0
KSVS 101400Z 28010KT 04/M07 A2982 RMK A01 T00431072  RH  043%=      5-min Rain = 0
KSVS 101405Z 27010KT 05/M07 A2982 RMK A01 T00461072  RH  042%=      5-min Rain = 0
KSVS 101410Z 27009KT 05/M07 A2982 RMK A01 T00521072  RH  040%=      5-min Rain = 0
KSVS 101415Z 27009KT 06/M07 A2982 RMK A01 T00641068  RH  038%=      5-min Rain = 0
KSVS 101420Z 27009KT 08/M07 A2982 RMK A01 T00751065  RH  036%=      5-min Rain = 0
KSVS 101425Z 26009KT 08/M07 A2982 RMK A01 T00821065  RH  035%=      5-min Rain = 0
KSVS 101430Z 26009KT 09/M06 A2982 RMK A01 T00891064  RH  033%=      5-min Rain = 0
KSVS 101435Z 26009KT 10/M07 A2982 RMK A01 T00981065  RH  031%=      5-min Rain = 0
KSVS 101440Z 26009KT 11/M06 A2982 RMK A01 T01051064  RH  030%=      5-min Rain = 0
KSVS 101445Z 26010KT 11/M07 A2982 RMK A01 T01091065  RH  029%=      5-min Rain = 0
KSVS 101450Z 26009G14KT 11/M06 A2982 RMK A01 T01131063  RH  028%=      5-min Rain = 0
KSVS 101455Z 26012KT 11/M07 A2982 RMK A01 T01131065  RH  028%=      5-min Rain = 0
KSVS 101500Z 26011G16KT 12/M06 A2982 RMK A01 T01221062  RH  027%=      5-min Rain = 0
KSVS 101505Z 26013G18KT 13/M06 A2982 RMK A01 T01281062  RH  026%=      5-min Rain = 0
KSVS 101510Z 26013KT 14/M06 A2982 RMK A01 T01371058  RH  025%=      5-min Rain = 0
KSVS 101515Z 25014KT 14/M06 A2982 RMK A01 T01411059  RH  024%=      5-min Rain = 0
KSVS 101520Z 25014KT 15/M06 A2982 RMK A01 T01461059  RH  024%=      5-min Rain = 0
KSVS 101525Z 25014KT 15/M06 A2981 RMK A01 T01491059  RH  023%=      5-min Rain = 0
KSVS 101530Z 26014KT 15/M06 A2981 RMK A01 T01531059  RH  023%=      5-min Rain = 0
KSVS 101535Z 25014KT 16/M06 A2981 RMK A01 T01601057  RH  022%=      5-min Rain = 0
KSVS 101540Z 25015KT 16/M06 A2981 RMK A01 T01621059  RH  021%=      5-min Rain = 0
KSVS 101545Z 25012KT 17/M06 A2981 RMK A01 T01721056  RH  021%=      5-min Rain = 0
KSVS 101550Z 26014KT 18/M06 A2981 RMK A01 T01761058  RH  020%=      5-min Rain = 0
KSVS 101555Z 26014KT 18/M06 A2981 RMK A01 T01831060  RH  019%=      5-min Rain = 0
KSVS 101600Z 26015KT 19/M06 A2981 RMK A01 T01881064  RH  018%=      5-min Rain = 0
KSVS 101605Z 26014KT 19/M06 A2981 RMK A01 T01941064  RH  017%=      5-min Rain = 0
KSVS 101610Z 26014KT 20/M07 A2981 RMK A01 T01981066  RH  016%=      5-min Rain = 0
KSVS 101615Z 26013KT 20/M07 A2981 RMK A01 T02041069  RH  015%=      5-min Rain = 0
KSVS 101620Z 27013KT 21/M08 A2981 RMK A01 T02101075  RH  014%=      5-min Rain = 0
KSVS 101625Z 28014KT 22/M09 A2981 RMK A01 T02151086  RH  012%=      5-min Rain = 0
KSVS 101630Z 28012KT 22/M09 A2981 RMK A01 T02201090  RH  012%=      5-min Rain = 0
KSVS 101635Z 30012KT 23/M11 A2981 RMK A01 T02251111  RH  010%=      5-min Rain = 0
KSVS 101640Z 29012G17KT 23/M11 A2981 RMK A01 T02321109  RH  009%=      5-min Rain = 0
KSVS 101645Z 30014KT 23/M13 A2981 RMK A01 T02311128  RH  008%=      5-min Rain = 0
KSVS 101650Z 30015KT 23/M13 A2981 RMK A01 T02341132  RH  008%=      5-min Rain = 0
KSVS 101655Z 30014KT 23/M13 A2981 RMK A01 T02341130  RH  008%=      5-min Rain = 0
KSVS 101700Z 30013KT 24/M13 A2981 RMK A01 T02351128  RH  008%=      5-min Rain = 0
KSVS 101705Z 29014KT 24/M13 A2981 RMK A01 T02361129  RH  008%=      5-min Rain = 0
KSVS 101710Z 29012KT 24/M12 A2981 RMK A01 T02381121  RH  008%=      5-min Rain = 0
KSVS 101715Z 31014KT 24/M13 A2981 RMK A01 T02401128  RH  008%=      5-min Rain = 0
KSVS 101720Z 31012KT 24/M13 A2981 RMK A01 T02411130  RH  007%=      5-min Rain = 0
KSVS 101725Z 31011KT 24/M13 A2981 RMK A01 T02421131  RH  007%=      5-min Rain = 0
KSVS 101730Z 32012G17KT 24/M13 A2981 RMK A01 T02441134  RH  007%=      5-min Rain = 0
KSVS 101735Z 31014KT 25/M14 A2981 RMK A01 T02451140  RH  007%=      5-min Rain = 0
KSVS 101740Z 31014G20KT 25/M14 A2981 RMK A01 T02471139  RH  007%=      5-min Rain = 0
KSVS 101745Z 33011G16KT 25/M13 A2981 RMK A01 T02471133  RH  007%=      5-min Rain = 0
KSVS 101750Z 31011G16KT 25/M14 A298 RMK A01 T02501138  RH  007%=      5-min Rain = 0
KSVS 101755Z 34012G17KT 25/M13 A298 RMK A01 T02491131  RH  007%=      5-min Rain = 0
KSVS 101800Z 32012G17KT 25/M14 A298 RMK A01 T02491137  RH  007%=      5-min Rain = 0
KSVS 101805Z 31012G19KT 25/M15 A298 RMK A01 T02531152  RH  006%=      5-min Rain = 0
KSVS 101810Z 32013G19KT 25/M16 A298 RMK A01 T02501161  RH  005%=      5-min Rain = 0
KSVS 101815Z 33011G17KT 25/M14 A298 RMK A01 T02501137  RH  007%=      5-min Rain = 0
KSVS 101820Z 32010KT 25/M15 A2979 RMK A01 T02541150  RH  006%=      5-min Rain = 0
KSVS 101825Z 33011G18KT 25/M16 A2979 RMK A01 T02521155  RH  006%=      5-min Rain = 0
KSVS 101830Z 33011G19KT 25/M16 A2979 RMK A01 T02541160  RH  005%=      5-min Rain = 0
KSVS 101835Z 32011G17KT 25/M16 A2979 RMK A01 T02531164  RH  005%=      5-min Rain = 0
KSVS 101840Z 30010KT 25/M16 A2979 RMK A01 T02541159  RH  005%=      5-min Rain = 0
KSVS 101845Z 32011G17KT 26/M16 A2979 RMK A01 T02581157  RH  005%=      5-min Rain = 0
KSVS 101850Z 33011G18KT 26/M16 A2979 RMK A01 T02561159  RH  005%=      5-min Rain = 0
KSVS 101855Z 30012G25KT 26/M16 A2979 RMK A01 T02581161  RH  005%=      5-min Rain = 0
KSVS 101900Z 33012G23KT 26/M16 A2978 RMK A01 T02641158  RH  005%=      5-min Rain = 0
KSVS 101905Z 32014G19KT 26/M16 A2978 RMK A01 T02581160  RH  005%=      5-min Rain = 0
KSVS 101910Z 31012G21KT 26/M16 A2978 RMK A01 T02591157  RH  005%=      5-min Rain = 0
KSVS 101915Z 33013G19KT 25/M16 A2978 RMK A01 T02531160  RH  005%=      5-min Rain = 0
KSVS 101920Z 34012G17KT 26/M16 A2977 RMK A01 T02621158  RH  005%=      5-min Rain = 0
KSVS 101925Z 32011G16KT 26/M16 A2977 RMK A01 T02581158  RH  005%=      5-min Rain = 0
KSVS 101930Z 32011G17KT 26/M15 A2977 RMK A01 T02621152  RH  005%=      5-min Rain = 0
KSVS 101935Z 32011G17KT 26/M16 A2977 RMK A01 T02611157  RH  005%=      5-min Rain = 0
KSVS 101940Z 31009G15KT 26/M16 A2976 RMK A01 T02601159  RH  005%=      5-min Rain = 0
KSVS 101945Z 32009G20KT 26/M16 A2976 RMK A01 T02591157  RH  005%=      5-min Rain = 0
KSVS 101950Z 33016G21KT 27/M15 A2976 RMK A01 T02651154  RH  005%=      5-min Rain = 0
KSVS 101955Z 31013G19KT 26/M16 A2976 RMK A01 T02631158  RH  005%=      5-min Rain = 0
KSVS 102000Z 32011G18KT 26/M16 A2975 RMK A01 T02591156  RH  005%=      5-min Rain = 0
KSVS 102005Z 34012G19KT 26/M16 A2975 RMK A01 T02621157  RH  005%=      5-min Rain = 0
KSVS 102010Z 33014G19KT 26/M16 A2975 RMK A01 T02601158  RH  005%=      5-min Rain = 0
KSVS 102015Z 33012G18KT 27/M16 A2974 RMK A01 T02651156  RH  005%=      5-min Rain = 0
KSVS 102020Z 32012G18KT 27/M16 A2974 RMK A01 T02681158  RH  005%=      5-min Rain = 0
KSVS 102025Z 30012KT 27/M16 A2974 RMK A01 T02661161  RH  005%=      5-min Rain = 0
KSVS 102030Z 30010G17KT 27/M16 A2974 RMK A01 T02681159  RH  005%=      5-min Rain = 0
KSVS 102035Z 33008G18KT 27/M16 A2974 RMK A01 T02671162  RH  005%=      5-min Rain = 0
KSVS 102040Z 32016G22KT 27/M16 A2974 RMK A01 T02651163  RH  005%=      5-min Rain = 0
KSVS 102045Z 32010G19KT 26/M16 A2974 RMK A01 T02641164  RH  005%=      5-min Rain = 0
KSVS 102050Z 31011G21KT 27/M16 A2974 RMK A01 T02671164  RH  005%=      5-min Rain = 0
KSVS 102055Z 29014G20KT 27/M16 A2974 RMK A01 T02691163  RH  005%=      5-min Rain = 0
KSVS 102100Z 31007G13KT 27/M16 A2974 RMK A01 T02661164  RH  005%=      5-min Rain = 0
KSVS 102105Z 31013G18KT 27/M17 A2974 RMK A01 T02671166  RH  005%=      5-min Rain = 0
KSVS 102110Z 28011G18KT 27/M17 A2974 RMK A01 T02681166  RH  005%=      5-min Rain = 0
KSVS 102115Z 29011G17KT 27/M17 A2974 RMK A01 T02711166  RH  005%=      5-min Rain = 0
KSVS 102120Z 31010G17KT 27/M17 A2974 RMK A01 T02671171  RH  005%=      5-min Rain = 0
KSVS 102125Z 31011G16KT 27/M17 A2974 RMK A01 T02651170  RH  005%=      5-min Rain = 0
KSVS 102130Z 32012G20KT 27/M17 A2974 RMK A01 T02701167  RH  005%=      5-min Rain = 0
KSVS 102135Z 32010G16KT 27/M17 A2974 RMK A01 T02701168  RH  005%=      5-min Rain = 0
KSVS 102140Z 31011G19KT 27/M17 A2974 RMK A01 T02711167  RH  005%=      5-min Rain = 0
KSVS 102145Z 32013G20KT 27/M17 A2974 RMK A01 T02671168  RH  005%=      5-min Rain = 0
KSVS 102150Z 32014G19KT 27/M17 A2974 RMK A01 T02711167  RH  005%=      5-min Rain = 0
KSVS 102155Z 32009KT 27/M17 A2974 RMK A01 T02651171  RH  005%=      5-min Rain = 0
KSVS 102200Z 31010G19KT 27/M17 A2974 RMK A01 T02681168  RH  005%=      5-min Rain = 0
KSVS 102205Z 30009KT 26/M17 A2974 RMK A01 T02631170  RH  005%=      5-min Rain = 0
KSVS 102210Z 31011G18KT 27/M17 A2974 RMK A01 T02651169  RH  005%=      5-min Rain = 0
KSVS 102215Z 32012G18KT 26/M17 A2974 RMK A01 T02611171  RH  005%=      5-min Rain = 0
KSVS 102220Z 31011G19KT 26/M17 A2974 RMK A01 T02611172  RH  005%=      5-min Rain = 0
KSVS 102225Z 31011G17KT 26/M17 A2974 RMK A01 T02631169  RH  005%=      5-min Rain = 0
KSVS 102230Z 33013KT 26/M17 A2974 RMK A01 T02621170  RH  005%=      5-min Rain = 0
KSVS 102235Z 33011G16KT 26/M17 A2974 RMK A01 T02611169  RH  005%=      5-min Rain = 0
KSVS 102240Z 33009G14KT 25/M17 A2975 RMK A01 T02531170  RH  005%=      5-min Rain = 0
KSVS 102245Z 34009KT 26/M17 A2975 RMK A01 T02591169  RH  005%=      5-min Rain = 0
KSVS 102250Z 32012KT 26/M17 A2975 RMK A01 T02591167  RH  005%=      5-min Rain = 0
KSVS 102255Z 32012G17KT 26/M17 A2975 RMK A01 T02551168  RH  005%=      5-min Rain = 0
KSVS 102300Z 32009KT 25/M17 A2976 RMK A01 T02521168  RH  005%=      5-min Rain = 0
KSVS 102305Z 33010KT 25/M17 A2976 RMK A01 T02491166  RH  005%=      5-min Rain = 0
KSVS 102310Z 33013G18KT 25/M17 A2976 RMK A01 T02461165  RH  005%=      5-min Rain = 0
KSVS 102315Z 33011KT 25/M16 A2976 RMK A01 T02481163  RH  005%=      5-min Rain = 0
KSVS 102320Z 33009G14KT 25/M17 A2976 RMK A01 T02501165  RH  005%=      5-min Rain = 0
KSVS 102325Z 33008KT 25/M16 A2976 RMK A01 T02541163  RH  005%=      5-min Rain = 0
KSVS 102330Z 35009KT 25/M17 A2976 RMK A01 T02511165  RH  005%=      5-min Rain = 0
KSVS 102335Z 34011KT 25/M16 A2976 RMK A01 T02511159  RH  006%=      5-min Rain = 0
KSVS 102340Z 34010KT 25/M16 A2977 RMK A01 T02461163  RH  006%=      5-min Rain = 0
KSVS 102345Z 34009KT 24/M16 A2977 RMK A01 T02411163  RH  006%=      5-min Rain = 0
KSVS 102350Z 35008KT 24/M16 A2977 RMK A01 T02371161  RH  006%=      5-min Rain = 0
KSVS 102355Z 00009KT 23/M16 A2977 RMK A01 T02331158  RH  006%=      5-min Rain = 0
KSVS 110000Z 00010KT 23/M15 A2977 RMK A01 T02271150  RH  007%=      5-min Rain = 0
KSVS 110005Z 01009KT 22/M14 A2977 RMK A01 T02201144  RH  008%=      5-min Rain = 0
KSVS 110010Z 01008KT 21/M14 A2978 RMK A01 T02111139  RH  008%=      5-min Rain = 0
KSVS 110015Z 01008KT 20/M14 A2978 RMK A01 T02041138  RH  009%=      5-min Rain = 0
KSVS 110020Z 01009KT 20/M14 A2978 RMK A01 T01971139  RH  009%=      5-min Rain = 0
KSVS 110025Z 03009KT 19/M13 A2978 RMK A01 T01941133  RH  010%=      5-min Rain = 0
KSVS 110030Z 03009KT 19/M13 A2978 RMK A01 T01941128  RH  010%=      5-min Rain = 0
KSVS 110035Z 03009KT 19/M12 A2978 RMK A01 T01911124  RH  011%=      5-min Rain = 0
KSVS 110040Z 03009KT 19/M13 A2978 RMK A01 T01851125  RH  011%=      5-min Rain = 0
KSVS 110045Z 03009KT 18/M13 A2978 RMK A01 T01781125  RH  011%=      5-min Rain = 0
KSVS 110050Z 03009KT 17/M12 A2979 RMK A01 T01711124  RH  012%=      5-min Rain = 0
KSVS 110055Z 02009KT 16/M13 A2979 RMK A01 T01621126  RH  013%=      5-min Rain = 0
KSVS 110100Z 02010KT 15/M13 A2979 RMK A01 T01541128  RH  013%=      5-min Rain = 0
KSVS 110105Z 02013G18KT 16/M13 A2979 RMK A01 T01581125  RH  013%=      5-min Rain = 0
KSVS 110110Z 01012KT 18/M12 A298 RMK A01 T01791120  RH  012%=      5-min Rain = 0
KSVS 110115Z 01011KT 18/M12 A298 RMK A01 T01771117  RH  012%=      5-min Rain = 0
KSVS 110120Z 02010KT 17/M11 A298 RMK A01 T01721114  RH  013%=      5-min Rain = 0
KSVS 110125Z 02010KT 17/M11 A2981 RMK A01 T01691114  RH  013%=      5-min Rain = 0
KSVS 110130Z 02010KT 17/M11 A2981 RMK A01 T01681113  RH  013%=      5-min Rain = 0
KSVS 110135Z 02010KT 17/M11 A2981 RMK A01 T01671112  RH  014%=      5-min Rain = 0
KSVS 110140Z 02010KT 17/M11 A2981 RMK A01 T01681111  RH  014%=      5-min Rain = 0
KSVS 110145Z 02009KT 17/M11 A2982 RMK A01 T01681110  RH  014%=      5-min Rain = 0
KSVS 110150Z 02010KT 17/M11 A2982 RMK A01 T01651109  RH  014%=      5-min Rain = 0
KSVS 110155Z 02009KT 16/M11 A2982 RMK A01 T01621108  RH  014%=      5-min Rain = 0
KSVS 110200Z 02009KT 16/M11 A2983 RMK A01 T01591107  RH  015%=      5-min Rain = 0
KSVS 110205Z 03010G15KT 16/M11 A2983 RMK A01 T01581105  RH  015%=      5-min Rain = 0
KSVS 110210Z 03013KT 18/M11 A2983 RMK A01 T01781106  RH  013%=      5-min Rain = 0
KSVS 110215Z 03013G18KT 18/M11 A2984 RMK A01 T01821108  RH  013%=      5-min Rain = 0
KSVS 110220Z 02012G17KT 18/M11 A2984 RMK A01 T01821108  RH  013%=      5-min Rain = 0
KSVS 110225Z 02012KT 18/M11 A2984 RMK A01 T01781106  RH  013%=      5-min Rain = 0
KSVS 110230Z 02012KT 18/M11 A2985 RMK A01 T01771105  RH  014%=      5-min Rain = 0
KSVS 110235Z 02012KT 18/M11 A2985 RMK A01 T01751105  RH  014%=      5-min Rain = 0
KSVS 110240Z 02011G16KT 18/M11 A2985 RMK A01 T01761105  RH  014%=      5-min Rain = 0
KSVS 110245Z 02010KT 17/M10 A2986 RMK A01 T01711103  RH  014%=      5-min Rain = 0
KSVS 110250Z 02011KT 17/M10 A2986 RMK A01 T01701103  RH  014%=      5-min Rain = 0
KSVS 110255Z 02011KT 17/M10 A2986 RMK A01 T01711103  RH  014%=      5-min Rain = 0
KSVS 110300Z 02011G16KT 17/M10 A2987 RMK A01 T01721103  RH  014%=      5-min Rain = 0
KSVS 110305Z 03011KT 17/M10 A2987 RMK A01 T01711102  RH  014%=      5-min Rain = 0
KSVS 110310Z 03010KT 17/M10 A2988 RMK A01 T01711103  RH  014%=      5-min Rain = 0
KSVS 110315Z 02011KT 17/M10 A2988 RMK A01 T01681101  RH  015%=      5-min Rain = 0
KSVS 110320Z 02011KT 17/M10 A2988 RMK A01 T01681101  RH  015%=      5-min Rain = 0
KSVS 110325Z 02011KT 17/M10 A2989 RMK A01 T01681103  RH  015%=      5-min Rain = 0
KSVS 110330Z 02010KT 17/M10 A2989 RMK A01 T01681101  RH  015%=      5-min Rain = 0
KSVS 110335Z 02011KT 17/M10 A2989 RMK A01 T01661099  RH  015%=      5-min Rain = 0
KSVS 110340Z 03012KT 17/M10 A2989 RMK A01 T01681100  RH  015%=      5-min Rain = 0
KSVS 110345Z 02013KT 17/M10 A2989 RMK A01 T01671100  RH  015%=      5-min Rain = 0
KSVS 110350Z 02014G20KT 17/M10 A2989 RMK A01 T01671099  RH  015%=      5-min Rain = 0
KSVS 110355Z 02013KT 17/M10 A2989 RMK A01 T01651097  RH  016%=      5-min Rain = 0
KSVS 110400Z 02013KT 16/M09 A299 RMK A01 T01621094  RH  016%=      5-min Rain = 0
KSVS 110405Z 02014G19KT 16/M09 A299 RMK A01 T01621088  RH  017%=      5-min Rain = 0
KSVS 110410Z 02013KT 16/M08 A299 RMK A01 T01601080  RH  018%=      5-min Rain = 0
KSVS 110415Z 02013G18KT 16/M07 A2991 RMK A01 T01581073  RH  020%=      5-min Rain = 0
KSVS 110420Z 02015G20KT 16/M06 A2991 RMK A01 T01581060  RH  022%=      5-min Rain = 0
KSVS 110425Z 02015KT 16/M05 A2992 RMK A01 T01561051  RH  024%=      5-min Rain = 0
KSVS 110430Z 02015KT 16/M04 A2992 RMK A01 T01551042  RH  026%=      5-min Rain = 0
KSVS 110435Z 02014G20KT 15/M03 A2993 RMK A01 T01531032  RH  028%=      5-min Rain = 0
KSVS 110440Z 02014G21KT 15/M03 A2993 RMK A01 T01531025  RH  030%=      5-min Rain = 0
KSVS 110445Z 02015G21KT 15/M02 A2994 RMK A01 T01511019  RH  031%=      5-min Rain = 0
KSVS 110450Z 02016G22KT 15/M01 A2994 RMK A01 T01501010  RH  034%=      5-min Rain = 0
KSVS 110455Z 02015KT 15/M00 A2995 RMK A01 T01501003  RH  035%=      5-min Rain = 0
KSVS 110500Z 02013KT 15/M00 A2996 RMK A01 T01491003  RH  036%=      5-min Rain = 0
KSVS 110505Z 01018G26KT 15/M01 A2996 RMK A01 T01511011  RH  033%=      5-min Rain = 0
KSVS 110510Z 01017G22KT 15/M03 A2996 RMK A01 T01491028  RH  030%=      5-min Rain = 0
KSVS 110515Z 01022G27KT 14/M05 A2997 RMK A01 T01441045  RH  027%=      5-min Rain = 0
KSVS 110520Z 01019G25KT 14/M05 A2997 RMK A01 T01401049  RH  027%=      5-min Rain = 0
KSVS 110525Z 01019G26KT 14/M05 A2997 RMK A01 T01361048  RH  027%=      5-min Rain = 0
KSVS 110530Z 01021G29KT 13/M05 A2998 RMK A01 T01341046  RH  028%=      5-min Rain = 0
KSVS 110535Z 01023G31KT 13/M05 A2998 RMK A01 T01331047  RH  028%=      5-min Rain = 0
KSVS 110540Z 02023G34KT 13/M05 A2998 RMK A01 T01321050  RH  028%=      5-min Rain = 0
KSVS 110545Z 02023G31KT 13/M05 A2999 RMK A01 T01321052  RH  027%=      5-min Rain = 0
KSVS 110550Z 02020G27KT 13/M05 A2999 RMK A01 T01291052  RH  028%=      5-min Rain = 0
KSVS 110555Z 01023G34KT 13/M05 A30 RMK A01 T01281054  RH  028%=      5-min Rain = 0

Page generated in 0.0381 seconds.